EST,Max TemperatureF,Mean TemperatureF,Min TemperatureF,Max Dew PointF,MeanDew PointF,Min DewpointF,Max Humidity, Mean Humidity, Min Humidity, Max Sea Level PressureIn, Mean Sea Level PressureIn, Min Sea Level PressureIn, Max VisibilityMiles, Mean VisibilityMiles, Min VisibilityMiles, Max Wind SpeedMPH, Mean Wind SpeedMPH, Max Gust SpeedMPH,PrecipitationIn, CloudCover, Events, WindDirDegrees
2012-12-1,63,46,29,43,34,28,100,74,47,30.43,30.35,30.31,10,6,0,13,2,18,0.00,1,Fog,251
2012-12-2,66,52,37,48,41,36,100,73,45,30.38,30.32,30.24,10,9,7,20,5,25,0.00,2,,198
2012-12-3,70,53,36,47,42,36,92,68,44,30.35,30.29,30.22,10,10,10,10,2,16,0.00,1,,164
2012-12-4,69,53,36,48,43,35,96,71,45,30.33,30.25,30.17,10,10,10,17,4,21,0.00,3,,189
2012-12-5,59,52,44,51,44,35,83,69,54,30.21,30.17,30.12,10,10,10,18,6,22,T,7,Rain,349
2012-12-6,52,49,45,41,35,26,82,62,42,30.26,30.19,30.16,10,10,10,10,4,13,T,8,Rain,164
2012-12-7,62,51,40,51,41,33,93,79,64,30.17,30.09,29.97,10,8,1,12,3,16,0.02,6,Rain,177
2012-12-8,67,54,41,54,47,41,100,78,56,30.08,30.02,29.96,10,5,0,14,4,20,T,7,Fog-Rain,183
2012-12-9,66,57,47,54,51,46,100,82,63,30.12,30.05,29.96,10,7,0,20,6,26,0.01,3,Fog-Rain,183
2012-12-10,60,53,46,56,54,42,93,90,86,29.97,29.79,29.68,10,9,2,25,8,33,0.22,7,Rain,175
2012-12-11,46,40,34,39,32,28,89,76,62,30.16,29.97,29.78,10,10,10,26,13,33,0.00,3,,349
2012-12-12,43,38,33,33,31,28,89,76,62,30.29,30.24,30.17,10,10,10,16,6,20,0.00,2,,349
2012-12-13,54,41,28,32,26,20,82,55,28,30.36,30.31,30.26,10,10,10,10,3,12,0.00,3,,13
2012-12-14,58,41,23,34,27,21,92,60,28,30.39,30.31,30.23,10,10,10,13,3,16,0.00,0,,239
2012-12-15,58,46,33,37,33,29,89,64,39,30.24,30.15,30.04,10,10,10,10,4,15,0.00,2,,160
2012-12-16,53,48,43,52,49,37,100,83,66,30.05,29.97,29.88,10,4,0,10,2,15,0.65,8,Fog-Rain,155
2012-12-17,54,50,45,50,47,45,100,95,89,29.90,29.79,29.65,10,7,1,20,6,24,0.06,5,Rain,171
2012-12-18,52,42,31,45,35,26,100,69,38,29.97,29.81,29.68,10,10,10,29,9,36,0.01,2,,334
2012-12-19,63,46,28,40,34,26,92,67,42,30.11,30.05,29.97,10,10,10,15,4,17,0.00,0,,337
2012-12-20,49,42,34,45,40,26,100,80,59,30.09,29.80,29.57,10,7,1,22,7,30,0.92,6,Rain,154
2012-12-21,39,35,30,25,19,15,64,52,40,29.95,29.77,29.66,10,10,10,35,17,47,T,6,,318
2012-12-22,45,36,27,14,12,7,55,38,20,30.19,30.11,29.99,10,10,10,32,15,39,0.00,0,,345
2012-12-23,50,37,23,29,20,13,81,56,31,30.18,30.10,30.03,10,10,10,13,4,15,0.00,2,,331
2012-12-24,51,44,36,46,41,30,100,85,70,30.01,29.91,29.84,10,7,2,13,3,16,0.31,8,Rain,167
2012-12-25,50,43,35,45,40,34,100,86,71,30.07,30.00,29.91,10,7,0,15,5,18,0.11,5,Fog-Rain,195
2012-12-26,47,40,33,44,39,25,96,80,64,29.84,29.60,29.44,10,7,2,23,9,35,1.83,8,Rain,153
2012-12-27,36,32,28,27,25,25,85,77,69,30.09,29.96,29.75,10,10,10,30,17,40,0.00,3,,350
2012-12-28,45,36,26,33,27,24,92,75,58,30.14,30.05,29.94,10,10,6,12,4,15,0.09,5,Rain,151
2012-12-29,45,37,29,36,31,20,100,77,53,30.06,29.83,29.75,10,7,1,29,12,37,0.15,7,Rain-Snow,354
2012-12-30,38,32,26,22,19,15,75,58,40,30.44,30.27,30.04,10,10,5,33,15,45,T,2,Snow,341
2012-12-31,51,38,24,27,20,12,88,55,21,30.37,30.26,30.10,10,10,10,12,4,14,0.00,2,,343